createdAt,value
2022-07-25T00:00:26.719Z,72.60
2022-07-25T00:02:54.011Z,72.70
2022-07-25T00:05:21.194Z,72.90
2022-07-25T00:07:48.358Z,72.90
2022-07-25T00:10:15.208Z,72.80
2022-07-25T00:12:42.390Z,72.80
2022-07-25T00:15:10.009Z,73.00
2022-07-25T00:17:37.112Z,73.00
2022-07-25T00:20:05.567Z,73.00
2022-07-25T00:22:32.369Z,73.10
2022-07-25T00:24:59.127Z,73.20
2022-07-25T00:27:26.070Z,73.30
2022-07-25T00:29:53.143Z,73.40
2022-07-25T00:32:19.923Z,73.40
2022-07-25T00:34:46.720Z,73.40
2022-07-25T00:37:13.506Z,73.50
2022-07-25T00:39:40.240Z,73.40
2022-07-25T00:42:07.232Z,73.30
2022-07-25T00:44:34.407Z,73.50
2022-07-25T00:47:01.718Z,73.60
2022-07-25T00:49:28.943Z,73.40
2022-07-25T00:51:55.871Z,73.50
2022-07-25T00:54:23.148Z,73.80
2022-07-25T00:56:50.884Z,74.00
2022-07-25T00:59:18.042Z,74.10
2022-07-25T01:01:47.869Z,74.20
2022-07-25T01:04:16.477Z,74.10
2022-07-25T01:06:43.653Z,74.10
2022-07-25T01:09:10.559Z,74.00
2022-07-25T01:11:37.857Z,74.10
2022-07-25T01:14:05.122Z,74.20
2022-07-25T01:16:32.127Z,74.20
2022-07-25T01:18:59.281Z,74.30
2022-07-25T01:21:26.862Z,74.30
2022-07-25T01:23:53.652Z,74.40
2022-07-25T01:26:20.662Z,74.50
2022-07-25T01:28:47.423Z,74.60
2022-07-25T01:31:14.299Z,74.60
2022-07-25T01:33:41.162Z,74.60
2022-07-25T01:36:08.372Z,74.70
2022-07-25T01:38:35.113Z,74.70
2022-07-25T01:41:01.944Z,74.90
2022-07-25T01:43:28.822Z,74.90
2022-07-25T01:45:55.840Z,75.20
2022-07-25T01:48:22.720Z,75.10
2022-07-25T01:50:49.580Z,75.10
2022-07-25T01:53:16.799Z,75.10
2022-07-25T01:55:45.971Z,75.20
2022-07-25T01:58:12.864Z,75.20
2022-07-25T02:00:41.256Z,75.20
2022-07-25T02:03:26.855Z,75.30
2022-07-25T02:05:53.808Z,75.30
2022-07-25T02:08:20.758Z,75.30
2022-07-25T02:10:47.626Z,75.30
2022-07-25T02:13:14.674Z,75.30
2022-07-25T02:15:41.490Z,75.20
2022-07-25T02:18:08.322Z,75.30
2022-07-25T02:20:35.166Z,75.40
2022-07-25T02:23:02.662Z,75.50
2022-07-25T02:25:29.680Z,75.50
2022-07-25T02:27:56.513Z,75.50
2022-07-25T02:30:24.416Z,75.40
2022-07-25T02:32:51.384Z,75.40
2022-07-25T02:35:18.210Z,75.50
2022-07-25T02:37:45.474Z,75.50
2022-07-25T02:40:12.672Z,75.50
2022-07-25T02:42:39.495Z,75.60
2022-07-25T02:45:06.869Z,75.70
2022-07-25T02:47:35.534Z,75.80
2022-07-25T02:50:05.700Z,75.80
2022-07-25T02:52:32.807Z,75.80
2022-07-25T02:55:03.813Z,75.80
2022-07-25T02:57:34.281Z,75.80
2022-07-25T03:00:01.265Z,75.80
2022-07-25T03:02:27.999Z,75.80
2022-07-25T03:04:54.806Z,75.90
2022-07-25T03:07:21.563Z,75.90
2022-07-25T03:09:48.394Z,76.20
2022-07-25T03:12:15.230Z,76.20
2022-07-25T03:14:41.972Z,76.20
2022-07-25T03:17:08.869Z,76.20
2022-07-25T03:19:35.686Z,76.20
2022-07-25T03:22:02.420Z,76.20
2022-07-25T03:24:29.169Z,76.30
2022-07-25T03:26:55.911Z,76.30
2022-07-25T03:29:22.681Z,76.30
2022-07-25T03:31:49.502Z,76.30
2022-07-25T03:34:16.419Z,76.40
2022-07-25T03:36:43.158Z,76.40
2022-07-25T03:39:09.908Z,76.40
2022-07-25T03:41:36.698Z,76.50
2022-07-25T03:44:04.137Z,76.50
2022-07-25T03:46:31.333Z,76.50
2022-07-25T03:48:58.253Z,76.50
2022-07-25T03:51:25.155Z,76.50
2022-07-25T03:54:05.192Z,76.60
2022-07-25T03:56:52.536Z,76.80
2022-07-25T03:59:21.201Z,76.90
2022-07-25T04:01:50.009Z,76.90
2022-07-25T04:04:17.986Z,76.90
2022-07-25T04:06:45.550Z,76.90
2022-07-25T04:09:12.893Z,76.90
2022-07-25T04:11:39.992Z,77.00
2022-07-25T04:14:07.482Z,77.00
2022-07-25T04:16:34.780Z,77.10
2022-07-25T04:19:01.843Z,77.00
2022-07-25T04:21:28.651Z,77.10
2022-07-25T04:23:55.366Z,77.00
2022-07-25T04:26:22.339Z,77.10
2022-07-25T04:28:49.720Z,77.20
2022-07-25T04:31:16.776Z,77.20
2022-07-25T04:33:44.057Z,77.40
2022-07-25T04:36:16.758Z,77.30
2022-07-25T04:38:44.043Z,77.30
2022-07-25T04:41:11.781Z,77.30
2022-07-25T04:43:38.581Z,77.50
2022-07-25T04:46:05.529Z,77.60
2022-07-25T04:48:32.371Z,77.70
2022-07-25T04:50:59.134Z,77.70
2022-07-25T04:53:25.899Z,77.70
2022-07-25T04:55:52.761Z,77.70
2022-07-25T04:58:19.723Z,77.80
2022-07-25T05:00:46.576Z,77.70
2022-07-25T05:03:13.350Z,77.70
2022-07-25T05:05:40.111Z,77.70
2022-07-25T05:08:06.873Z,77.60
2022-07-25T05:10:33.649Z,77.60
2022-07-25T05:13:00.420Z,77.70
2022-07-25T05:15:27.335Z,77.60
2022-07-25T05:17:54.105Z,77.60
2022-07-25T05:20:21.019Z,77.60
2022-07-25T05:22:50.631Z,77.60
2022-07-25T05:25:17.694Z,77.60
2022-07-25T05:27:44.882Z,77.70
2022-07-25T05:30:12.948Z,77.80
2022-07-25T05:32:40.293Z,77.80
2022-07-25T05:35:08.530Z,77.80
2022-07-25T05:37:36.805Z,77.80
2022-07-25T05:40:05.089Z,77.80
2022-07-25T05:42:32.589Z,78.10
2022-07-25T05:44:59.839Z,78.30
2022-07-25T05:47:26.641Z,78.50
2022-07-25T05:49:54.195Z,78.50
2022-07-25T05:52:21.098Z,78.60
2022-07-25T05:54:47.968Z,78.40
2022-07-25T05:57:14.913Z,78.40
2022-07-25T05:59:41.934Z,78.00
2022-07-25T06:02:08.887Z,77.80
2022-07-25T06:04:35.850Z,77.90
2022-07-25T06:07:02.895Z,77.90
2022-07-25T06:09:31.845Z,77.90
2022-07-25T06:12:01.162Z,77.60
2022-07-25T06:14:28.635Z,77.70
2022-07-25T06:16:55.578Z,77.80
2022-07-25T06:19:22.417Z,78.00
2022-07-25T06:21:49.232Z,78.40
2022-07-25T06:24:15.991Z,78.70
2022-07-25T06:26:42.834Z,78.60
2022-07-25T06:29:09.616Z,78.60
2022-07-25T06:31:36.553Z,78.50
2022-07-25T06:34:03.650Z,78.20
2022-07-25T06:36:32.348Z,78.00
2022-07-25T06:39:00.023Z,77.70
2022-07-25T06:41:27.177Z,77.20
2022-07-25T06:43:54.020Z,77.30
2022-07-25T06:46:20.895Z,77.20
2022-07-25T06:48:47.852Z,76.60
2022-07-25T06:51:15.175Z,76.70
2022-07-25T06:53:42.122Z,76.90
2022-07-25T06:56:09.928Z,76.00
2022-07-25T06:58:39.239Z,76.30
2022-07-25T07:01:06.984Z,76.10
2022-07-25T07:03:38.275Z,76.10
2022-07-25T07:06:07.602Z,75.80
2022-07-25T07:08:34.958Z,75.70
2022-07-25T07:11:01.793Z,75.20
2022-07-25T07:13:28.736Z,75.70
2022-07-25T07:15:55.962Z,75.20
2022-07-25T07:18:23.056Z,75.80
2022-07-25T07:20:50.284Z,74.50
2022-07-25T07:23:18.055Z,74.50
2022-07-25T07:25:46.949Z,74.50
2022-07-25T07:28:14.320Z,74.40
2022-07-25T07:33:29.628Z,73.90
2022-07-25T07:35:57.121Z,72.90
2022-07-25T07:38:25.046Z,72.90
2022-07-25T07:40:53.062Z,72.80
2022-07-25T07:43:20.231Z,72.50
2022-07-25T07:45:47.092Z,72.60
2022-07-25T07:48:13.926Z,72.10
2022-07-25T07:50:41.040Z,72.10
2022-07-25T07:53:07.909Z,71.90
2022-07-25T07:55:55.185Z,72.30
2022-07-25T07:58:22.302Z,72.30
2022-07-25T08:00:51.547Z,72.40
2022-07-25T08:03:20.629Z,72.40
2022-07-25T08:05:48.841Z,71.90
2022-07-25T08:08:16.481Z,71.30
2022-07-25T08:10:48.170Z,71.10
2022-07-25T08:13:16.860Z,70.90
2022-07-25T08:15:46.329Z,70.40
2022-07-25T08:18:17.138Z,70.50
2022-07-25T08:20:46.054Z,69.90
2022-07-25T08:23:13.044Z,70.20
2022-07-25T08:25:40.506Z,70.10
2022-07-25T08:28:07.971Z,70.10
2022-07-25T08:30:36.446Z,69.80
2022-07-25T08:33:07.251Z,69.50
2022-07-25T08:35:34.876Z,69.20
2022-07-25T08:38:05.108Z,69.20
2022-07-25T08:40:34.082Z,68.80
2022-07-25T08:43:01.370Z,68.10
2022-07-25T08:45:28.811Z,68.20
2022-07-25T08:47:56.697Z,68.20
2022-07-25T08:50:28.522Z,67.80
2022-07-25T08:53:16.246Z,67.60
2022-07-25T08:55:45.228Z,67.60
2022-07-25T08:58:14.117Z,67.40
2022-07-25T09:00:42.073Z,67.60
2022-07-25T09:03:09.268Z,67.20
2022-07-25T09:05:37.547Z,66.90
2022-07-25T09:08:13.436Z,66.90
2022-07-25T09:10:47.109Z,66.90
2022-07-25T09:13:14.867Z,66.80
2022-07-25T09:15:46.436Z,66.60
2022-07-25T09:18:16.044Z,66.50
2022-07-25T09:20:50.594Z,66.70
2022-07-25T09:23:35.642Z,66.60
2022-07-25T09:26:10.796Z,66.30
2022-07-25T09:28:53.298Z,66.20
2022-07-25T09:31:23.542Z,66.00
2022-07-25T09:33:56.897Z,65.90
2022-07-25T09:36:23.837Z,65.90
2022-07-25T09:38:55.554Z,65.70
2022-07-25T09:41:22.804Z,65.40
2022-07-25T09:43:49.637Z,65.10
2022-07-25T09:46:16.712Z,65.40
2022-07-25T09:48:45.695Z,65.30
2022-07-25T09:51:12.770Z,65.10
2022-07-25T09:53:40.903Z,64.80
2022-07-25T09:56:08.628Z,64.50
2022-07-25T09:58:35.438Z,64.30
2022-07-25T10:01:06.362Z,64.10
2022-07-25T10:03:51.023Z,63.40
2022-07-25T10:07:00.831Z,63.50
2022-07-25T10:09:27.698Z,63.50
2022-07-25T10:12:09.681Z,63.60
2022-07-25T10:14:37.614Z,63.50
2022-07-25T10:17:05.719Z,63.20
2022-07-25T10:19:51.137Z,63.10
2022-07-25T10:22:34.255Z,62.70
2022-07-25T10:25:18.709Z,62.50
2022-07-25T10:27:52.805Z,61.40
2022-07-25T10:30:24.902Z,61.50
2022-07-25T10:32:58.668Z,61.70
2022-07-25T10:35:27.652Z,61.40
2022-07-25T10:37:56.448Z,61.10
2022-07-25T10:40:45.037Z,60.90
2022-07-25T10:43:13.600Z,61.10
2022-07-25T10:45:52.329Z,61.10
2022-07-25T10:48:27.673Z,60.80
2022-07-25T10:51:01.990Z,60.40
2022-07-25T10:53:45.350Z,60.20
2022-07-25T10:56:18.274Z,60.40
2022-07-25T10:58:59.526Z,60.40
2022-07-25T11:01:31.777Z,60.20
2022-07-25T11:04:01.278Z,59.20
2022-07-25T11:06:42.710Z,59.60
2022-07-25T11:09:27.288Z,59.30
2022-07-25T11:11:57.157Z,58.30
2022-07-25T11:14:33.353Z,58.50
2022-07-25T11:17:19.830Z,58.50
2022-07-25T11:20:00.195Z,58.00
2022-07-25T11:22:28.892Z,57.60
2022-07-25T11:24:57.725Z,57.80
2022-07-25T11:27:30.654Z,57.60
2022-07-25T11:30:11.940Z,58.00
2022-07-25T11:32:46.730Z,57.60
2022-07-25T11:35:23.367Z,57.50
2022-07-25T11:37:52.230Z,57.50
2022-07-25T11:40:20.571Z,57.20
2022-07-25T11:42:56.002Z,58.00
2022-07-25T11:45:27.143Z,58.00
2022-07-25T11:48:12.118Z,57.90
2022-07-25T11:50:41.907Z,58.00
2022-07-25T11:53:14.453Z,58.20
2022-07-25T11:55:43.200Z,57.60
2022-07-25T11:58:11.523Z,57.80
2022-07-25T12:00:50.002Z,57.30
2022-07-25T12:03:20.939Z,57.60
2022-07-25T12:05:49.305Z,57.60
2022-07-25T12:08:20.269Z,56.80
2022-07-25T12:10:49.230Z,57.10
2022-07-25T12:13:27.765Z,56.50
2022-07-25T12:15:59.004Z,56.40
2022-07-25T12:18:26.598Z,56.30
2022-07-25T12:20:53.445Z,54.80
2022-07-25T12:23:24.768Z,55.40
2022-07-25T12:25:51.643Z,55.60
2022-07-25T12:28:18.581Z,55.60
2022-07-25T12:30:46.634Z,55.60
2022-07-25T12:33:14.066Z,55.50
2022-07-25T12:35:42.551Z,55.20
2022-07-25T12:38:10.987Z,54.90
2022-07-25T12:40:38.229Z,54.20
2022-07-25T12:43:05.257Z,54.10
2022-07-25T12:45:32.487Z,54.30
2022-07-25T12:48:00.110Z,54.60
2022-07-25T12:50:29.345Z,55.10
2022-07-25T12:52:56.126Z,55.30
2022-07-25T12:55:23.693Z,55.30
2022-07-25T12:57:50.976Z,55.50
2022-07-25T13:00:23.173Z,55.50
2022-07-25T13:02:52.127Z,55.90
2022-07-25T13:05:19.684Z,55.70
2022-07-25T13:07:47.402Z,55.80
2022-07-25T13:10:14.244Z,55.60
2022-07-25T13:12:41.414Z,55.30
2022-07-25T13:15:09.381Z,55.40
2022-07-25T13:17:36.453Z,56.00
2022-07-25T13:20:05.973Z,55.90
2022-07-25T13:22:32.990Z,56.10
2022-07-25T13:24:59.762Z,55.60
2022-07-25T13:27:26.574Z,55.60
2022-07-25T13:29:56.320Z,56.20
2022-07-25T13:32:24.075Z,56.40
2022-07-25T13:34:51.143Z,56.40
2022-07-25T13:37:18.267Z,56.40
2022-07-25T13:39:45.253Z,56.10
2022-07-25T13:42:12.623Z,56.50
2022-07-25T13:44:39.471Z,56.90
2022-07-25T13:52:28.101Z,57.20
2022-07-25T13:54:54.955Z,57.50
2022-07-25T13:57:21.787Z,57.60
2022-07-25T13:59:51.462Z,57.30
2022-07-25T14:02:18.315Z,57.40
2022-07-25T14:04:46.264Z,57.20
2022-07-25T14:07:14.437Z,57.20
2022-07-25T14:09:41.452Z,57.50
2022-07-25T14:12:10.686Z,57.60
2022-07-25T14:14:37.489Z,57.80
2022-07-25T14:17:04.655Z,57.90
2022-07-25T14:19:31.498Z,58.50
2022-07-25T14:21:58.393Z,59.00
2022-07-25T14:24:25.217Z,59.30
2022-07-25T14:26:53.991Z,59.30
2022-07-25T14:29:23.900Z,59.30
2022-07-25T14:31:54.081Z,59.10
2022-07-25T14:34:20.987Z,58.90
2022-07-25T14:36:53.036Z,58.80
2022-07-25T14:39:33.402Z,58.90
2022-07-25T14:42:16.015Z,58.60
2022-07-25T14:47:26.660Z,58.40
2022-07-25T14:49:54.259Z,58.30
2022-07-25T14:52:25.183Z,58.40
2022-07-25T14:54:52.245Z,58.40
2022-07-25T14:57:19.131Z,58.40
2022-07-25T14:59:46.146Z,58.10
2022-07-25T15:02:12.956Z,58.10
2022-07-25T15:04:39.748Z,58.30
2022-07-25T15:07:06.932Z,58.50
2022-07-25T15:09:33.757Z,58.80
2022-07-25T15:12:00.605Z,58.90
2022-07-25T15:14:27.409Z,59.00
2022-07-25T15:16:54.338Z,59.20
2022-07-25T15:19:21.497Z,59.50
2022-07-25T15:21:49.075Z,59.70
2022-07-25T15:24:15.877Z,60.00
2022-07-25T15:26:44.027Z,60.40
2022-07-25T15:29:13.659Z,60.80
2022-07-25T15:31:43.686Z,61.00
2022-07-25T15:34:11.033Z,61.70
2022-07-25T15:36:37.858Z,63.40
2022-07-25T15:39:05.020Z,64.50
2022-07-25T15:41:32.164Z,66.10
2022-07-25T15:43:59.818Z,65.90
2022-07-25T15:46:27.209Z,66.10
2022-07-25T15:48:54.134Z,66.10
2022-07-25T15:51:21.039Z,65.90
2022-07-25T15:53:48.087Z,65.90
2022-07-25T15:56:16.149Z,66.20
2022-07-25T15:58:43.331Z,66.10
2022-07-25T16:01:10.271Z,65.50
2022-07-25T16:03:37.647Z,65.50
2022-07-25T16:06:04.949Z,65.90
2022-07-25T16:08:32.226Z,65.90
2022-07-25T16:11:01.011Z,65.60
2022-07-25T16:13:29.732Z,65.40
2022-07-25T16:15:56.796Z,65.40
2022-07-25T16:18:23.695Z,64.80
2022-07-25T16:20:51.453Z,64.60
2022-07-25T16:23:19.337Z,64.80
2022-07-25T16:25:46.408Z,64.80
2022-07-25T16:28:13.195Z,64.50
2022-07-25T16:30:40.245Z,64.10
2022-07-25T16:33:10.073Z,64.20
2022-07-25T16:35:37.001Z,64.00
2022-07-25T16:38:06.158Z,63.20
2022-07-25T16:40:33.621Z,63.20
2022-07-25T16:43:01.015Z,63.30
2022-07-25T16:45:28.184Z,63.10
2022-07-25T16:47:55.174Z,63.40
2022-07-25T16:50:22.305Z,62.30
2022-07-25T16:52:49.066Z,62.30
2022-07-25T16:55:15.821Z,61.90
2022-07-25T16:57:42.671Z,60.70
2022-07-25T17:00:10.238Z,60.70
2022-07-25T17:02:38.823Z,60.70
2022-07-25T17:05:06.808Z,60.70
2022-07-25T17:07:33.797Z,60.50
2022-07-25T17:10:00.581Z,60.60
2022-07-25T17:12:27.333Z,60.60
2022-07-25T17:14:54.131Z,60.70
2022-07-25T17:17:21.055Z,61.00
2022-07-25T17:19:47.808Z,61.30
2022-07-25T17:22:15.010Z,61.40
2022-07-25T17:24:42.166Z,61.40
2022-07-25T17:27:09.815Z,61.80
2022-07-25T17:29:37.060Z,61.80
2022-07-25T17:32:05.954Z,61.70
2022-07-25T17:34:33.104Z,61.60
2022-07-25T17:37:03.028Z,61.40
2022-07-25T17:39:34.081Z,61.40
2022-07-25T17:42:01.950Z,61.60
2022-07-25T17:44:28.771Z,61.60
2022-07-25T17:46:55.853Z,61.50
2022-07-25T17:49:22.864Z,61.50
2022-07-25T17:51:49.992Z,61.50
2022-07-25T17:54:17.049Z,61.50
2022-07-25T17:56:45.323Z,61.40
2022-07-25T17:59:12.203Z,61.50
2022-07-25T18:01:40.031Z,61.70
2022-07-25T18:04:07.331Z,61.80
2022-07-25T18:06:34.548Z,61.90
2022-07-25T18:09:01.407Z,62.10
2022-07-25T18:11:28.247Z,61.90
2022-07-25T18:13:55.102Z,61.80
2022-07-25T18:16:21.955Z,62.00
2022-07-25T18:18:48.852Z,62.10
2022-07-25T18:21:15.911Z,62.20
2022-07-25T18:23:42.868Z,62.20
2022-07-25T18:26:12.232Z,62.20
2022-07-25T18:28:39.269Z,62.20
2022-07-25T18:31:06.290Z,62.10
2022-07-25T18:33:33.199Z,62.10
2022-07-25T18:36:04.091Z,62.30
2022-07-25T18:38:34.188Z,62.30
2022-07-25T18:41:26.537Z,62.10
2022-07-25T18:43:48.706Z,61.90
2022-07-25T18:46:23.387Z,62.00
2022-07-25T18:48:50.631Z,61.90
2022-07-25T18:51:17.674Z,61.80
2022-07-25T18:53:48.007Z,61.80
2022-07-25T18:56:15.846Z,61.80
2022-07-25T18:58:43.108Z,61.50
2022-07-25T19:01:10.667Z,61.80
2022-07-25T19:03:38.240Z,61.70
2022-07-25T19:06:06.825Z,61.50
2022-07-25T19:08:33.679Z,61.60
2022-07-25T19:11:00.938Z,61.40
2022-07-25T19:13:48.896Z,61.50
2022-07-25T19:16:15.998Z,61.30
2022-07-25T19:18:43.064Z,61.30
2022-07-25T19:21:10.554Z,61.30
2022-07-25T19:23:37.512Z,61.30
2022-07-25T19:26:04.505Z,61.40
2022-07-25T19:28:32.439Z,61.30
2022-07-25T19:30:59.313Z,61.50
2022-07-25T19:33:26.246Z,61.90
2022-07-25T19:36:04.993Z,61.60
2022-07-25T19:38:32.377Z,61.60
2022-07-25T19:40:59.737Z,61.50
2022-07-25T19:43:29.829Z,61.50
2022-07-25T19:45:56.766Z,61.40
2022-07-25T19:48:24.087Z,61.30
2022-07-25T19:50:51.868Z,61.40
2022-07-25T19:53:23.105Z,61.70
2022-07-25T19:55:53.646Z,61.50
2022-07-25T19:58:20.862Z,61.40
2022-07-25T20:00:47.721Z,61.60
2022-07-25T20:03:23.438Z,61.50
2022-07-25T20:05:51.130Z,61.60
2022-07-25T20:08:18.838Z,61.70
2022-07-25T20:10:48.672Z,61.60
2022-07-25T20:13:15.829Z,61.60
2022-07-25T20:15:42.939Z,62.40
2022-07-25T20:18:10.461Z,62.50
2022-07-25T20:20:37.570Z,62.80
2022-07-25T20:23:04.655Z,62.70
2022-07-25T20:25:31.743Z,62.50
2022-07-25T20:27:58.494Z,62.50
2022-07-25T20:30:25.701Z,62.40
2022-07-25T20:32:52.750Z,62.40
2022-07-25T20:35:19.752Z,62.50
2022-07-25T20:37:46.671Z,62.70
2022-07-25T20:40:13.831Z,62.80
2022-07-25T20:42:40.614Z,63.00
2022-07-25T20:45:08.191Z,62.80
2022-07-25T20:47:35.066Z,62.50
2022-07-25T20:50:02.311Z,63.00
2022-07-25T20:52:30.338Z,63.30
2022-07-25T20:54:57.224Z,63.40
2022-07-25T20:57:24.204Z,62.70
2022-07-25T20:59:51.709Z,62.80
2022-07-25T21:02:18.982Z,63.00
2022-07-25T21:04:48.381Z,62.90
2022-07-25T21:07:16.116Z,63.10
2022-07-25T21:09:42.867Z,63.20
2022-07-25T21:12:09.952Z,63.20
2022-07-25T21:14:37.339Z,63.30
2022-07-25T21:17:04.536Z,63.40
2022-07-25T21:19:31.415Z,63.20
2022-07-25T21:21:58.279Z,63.60
2022-07-25T21:24:25.191Z,63.80
2022-07-25T21:26:52.033Z,64.10
2022-07-25T21:29:18.889Z,64.20
2022-07-25T21:31:46.100Z,64.10
2022-07-25T21:34:12.956Z,64.10
2022-07-25T21:36:39.855Z,64.50
2022-07-25T21:39:07.231Z,64.50
2022-07-25T21:41:34.487Z,64.40
2022-07-25T21:44:01.598Z,64.40
2022-07-25T21:46:28.477Z,64.40
2022-07-25T21:49:14.595Z,64.30
2022-07-25T21:51:41.827Z,64.40
2022-07-25T21:54:09.882Z,64.20
2022-07-25T21:56:36.706Z,64.10
2022-07-25T21:59:03.575Z,64.50
2022-07-25T22:01:30.463Z,64.20
2022-07-25T22:03:57.241Z,64.10
2022-07-25T22:06:24.435Z,63.90
2022-07-25T22:08:51.331Z,63.80
2022-07-25T22:11:43.570Z,63.70
2022-07-25T22:14:05.275Z,63.80
2022-07-25T22:16:32.225Z,63.80
2022-07-25T22:18:59.762Z,63.90
2022-07-25T22:21:26.672Z,63.90
2022-07-25T22:23:53.455Z,64.00
2022-07-25T22:26:20.432Z,64.00
2022-07-25T22:28:48.249Z,64.10
2022-07-25T22:31:15.531Z,64.10
2022-07-25T22:33:42.374Z,64.40
2022-07-25T22:36:09.549Z,64.40
2022-07-25T22:38:36.468Z,64.50
2022-07-25T22:41:03.285Z,64.60
2022-07-25T22:43:57.825Z,64.60
2022-07-25T22:46:16.975Z,64.80
2022-07-25T22:48:43.963Z,64.90
2022-07-25T22:51:11.997Z,65.00
2022-07-25T22:53:38.726Z,65.50
2022-07-25T22:56:05.904Z,65.60
2022-07-25T22:58:35.923Z,66.10
2022-07-25T23:01:02.702Z,66.20
2022-07-25T23:03:30.681Z,66.40
2022-07-25T23:05:59.996Z,66.50
2022-07-25T23:08:26.776Z,66.70
2022-07-25T23:10:53.575Z,66.90
2022-07-25T23:13:20.731Z,66.80
2022-07-25T23:15:51.100Z,67.00
2022-07-25T23:18:18.819Z,67.40
2022-07-25T23:20:45.559Z,67.60
2022-07-25T23:23:12.485Z,67.50
2022-07-25T23:25:39.355Z,67.40
2022-07-25T23:28:06.276Z,67.30
2022-07-25T23:30:38.066Z,67.40
2022-07-25T23:33:07.635Z,67.60
2022-07-25T23:35:35.154Z,68.20
2022-07-25T23:38:02.473Z,68.40
2022-07-25T23:40:29.896Z,68.40
2022-07-25T23:42:56.697Z,68.10
2022-07-25T23:45:25.005Z,68.10
2022-07-25T23:47:55.612Z,68.10
2022-07-25T23:50:22.913Z,68.10
2022-07-25T23:52:49.651Z,68.30
2022-07-25T23:55:16.428Z,68.30
2022-07-25T23:57:43.255Z,68.20
